createdAt,value
2018-06-23T00:00:29.800Z,9.40
2018-06-23T00:02:59.136Z,9.40
2018-06-23T00:05:28.446Z,9.40
2018-06-23T00:07:57.533Z,9.30
2018-06-23T00:10:26.879Z,9.30
2018-06-23T00:12:55.996Z,9.20
2018-06-23T00:15:25.125Z,9.20
2018-06-23T00:17:54.571Z,9.20
2018-06-23T00:20:23.870Z,9.20
2018-06-23T00:22:53.117Z,9.10
2018-06-23T00:25:27.715Z,9.00
2018-06-23T00:27:57.329Z,9.00
2018-06-23T00:30:26.434Z,9.00
2018-06-23T00:32:55.816Z,9.00
2018-06-23T00:35:25.020Z,9.00
2018-06-23T00:37:54.141Z,9.00
2018-06-23T00:40:23.612Z,8.90
2018-06-23T00:42:52.812Z,8.90
2018-06-23T00:45:22.006Z,8.90
2018-06-23T00:47:51.529Z,8.90
2018-06-23T00:50:20.730Z,8.90
2018-06-23T00:52:49.935Z,8.80
2018-06-23T00:55:19.112Z,8.80
2018-06-23T00:57:48.228Z,8.80
2018-06-23T01:00:17.336Z,8.70
2018-06-23T01:02:46.486Z,8.70
2018-06-23T01:05:15.648Z,8.60
2018-06-23T01:07:44.808Z,8.50
2018-06-23T01:10:13.960Z,8.50
2018-06-23T01:12:43.117Z,8.50
2018-06-23T01:15:12.285Z,8.40
2018-06-23T01:17:41.639Z,8.40
2018-06-23T01:20:10.789Z,8.40
2018-06-23T01:22:39.976Z,8.40
2018-06-23T01:25:09.145Z,8.40
2018-06-23T01:27:38.274Z,8.40
2018-06-23T01:30:07.777Z,8.50
2018-06-23T01:32:37.103Z,8.40
2018-06-23T01:35:06.316Z,8.30
2018-06-23T01:37:35.424Z,8.40
2018-06-23T01:40:04.791Z,8.40
2018-06-23T01:42:34.229Z,8.30
2018-06-23T01:45:03.373Z,8.40
2018-06-23T01:47:32.738Z,8.30
2018-06-23T01:50:01.896Z,8.30
2018-06-23T01:52:31.085Z,8.30
2018-06-23T01:55:00.294Z,8.30
2018-06-23T01:57:29.473Z,8.40
2018-06-23T01:59:58.596Z,8.30
2018-06-23T02:02:27.728Z,8.30
2018-06-23T02:04:56.840Z,8.30
2018-06-23T02:07:26.100Z,8.30
2018-06-23T02:09:55.519Z,8.20
2018-06-23T02:12:24.656Z,8.20
2018-06-23T02:14:59.310Z,8.20
2018-06-23T02:17:34.728Z,8.20
2018-06-23T02:20:09.405Z,8.10
2018-06-23T02:22:43.833Z,7.90
2018-06-23T02:25:18.198Z,7.80
2018-06-23T02:27:53.392Z,7.80
2018-06-23T02:32:31.216Z,7.80
2018-06-23T02:35:06.649Z,7.80
2018-06-23T02:37:38.476Z,7.80
2018-06-23T02:40:08.404Z,7.80
2018-06-23T02:42:37.596Z,7.80
2018-06-23T02:45:07.560Z,7.90
2018-06-23T02:47:37.008Z,7.80
2018-06-23T02:50:06.144Z,7.80
2018-06-23T02:52:35.434Z,7.70
2018-06-23T02:55:04.706Z,7.70
2018-06-23T02:57:33.823Z,7.70
2018-06-23T03:00:03.152Z,7.70
2018-06-23T03:02:32.302Z,7.70
2018-06-23T03:05:01.437Z,7.70
2018-06-23T03:07:30.569Z,7.70
2018-06-23T03:09:59.712Z,7.70
2018-06-23T03:12:28.889Z,7.70
2018-06-23T03:14:58.188Z,7.70
2018-06-23T03:17:27.341Z,7.40
2018-06-23T03:19:56.530Z,7.40
2018-06-23T03:22:25.666Z,7.40
2018-06-23T03:24:54.980Z,7.30
2018-06-23T03:27:24.158Z,7.20
2018-06-23T03:29:53.264Z,7.10
2018-06-23T03:32:22.413Z,7.20
2018-06-23T03:34:51.496Z,7.30
2018-06-23T03:37:20.849Z,7.30
2018-06-23T03:39:50.046Z,7.30
2018-06-23T03:42:19.175Z,7.40
2018-06-23T03:44:48.306Z,7.40
2018-06-23T03:47:17.404Z,7.50
2018-06-23T03:49:46.741Z,7.50
2018-06-23T03:52:16.153Z,7.40
2018-06-23T03:54:45.261Z,7.40
2018-06-23T03:57:14.332Z,7.50
2018-06-23T03:59:43.584Z,7.50
2018-06-23T04:02:13.313Z,7.60
2018-06-23T04:04:42.541Z,7.70
2018-06-23T04:07:11.930Z,7.80
2018-06-23T04:09:41.092Z,7.90
2018-06-23T04:12:10.193Z,7.90
2018-06-23T04:14:39.897Z,8.00
2018-06-23T04:17:09.105Z,8.10
2018-06-23T04:19:38.249Z,8.20
2018-06-23T04:22:07.569Z,8.20
2018-06-23T04:24:36.705Z,8.20
2018-06-23T04:27:06.013Z,8.30
2018-06-23T04:29:35.181Z,8.40
2018-06-23T04:32:04.336Z,8.40
2018-06-23T04:34:33.473Z,8.50
2018-06-23T04:37:02.836Z,8.60
2018-06-23T04:39:32.277Z,8.70
2018-06-23T04:42:01.655Z,8.80
2018-06-23T04:44:30.781Z,8.80
2018-06-23T04:46:59.889Z,8.90
2018-06-23T04:49:28.988Z,8.90
2018-06-23T04:51:58.176Z,9.00
2018-06-23T04:54:27.473Z,9.10
2018-06-23T04:56:56.693Z,9.20
2018-06-23T04:59:26.285Z,9.30
2018-06-23T05:01:55.443Z,9.40
2018-06-23T05:04:24.832Z,9.50
2018-06-23T05:06:54.039Z,9.70
2018-06-23T05:09:23.193Z,9.80
2018-06-23T05:11:52.400Z,9.90
2018-06-23T05:14:21.533Z,10.10
2018-06-23T05:16:50.781Z,10.10
2018-06-23T05:19:19.976Z,10.30
2018-06-23T05:21:49.268Z,10.50
2018-06-23T05:24:18.448Z,10.70
2018-06-23T05:26:47.541Z,10.90
2018-06-23T05:29:17.037Z,11.00
2018-06-23T05:31:46.178Z,11.10
2018-06-23T05:34:15.324Z,11.20
2018-06-23T05:36:44.515Z,11.30
2018-06-23T05:39:13.657Z,11.40
2018-06-23T05:41:43.045Z,11.50
2018-06-23T05:44:12.677Z,11.70
2018-06-23T05:46:41.765Z,11.70
2018-06-23T05:49:10.969Z,12.00
2018-06-23T05:51:40.130Z,12.00
2018-06-23T05:54:09.420Z,12.20
2018-06-23T05:56:38.594Z,12.00
2018-06-23T05:59:08.045Z,12.20
2018-06-23T06:01:37.232Z,12.40
2018-06-23T06:04:06.360Z,12.60
2018-06-23T06:06:35.636Z,12.70
2018-06-23T06:09:07.020Z,12.90
2018-06-23T06:11:36.431Z,13.20
2018-06-23T06:14:05.624Z,13.30
2018-06-23T06:17:40.005Z,13.20
2018-06-23T06:20:12.168Z,13.30
2018-06-23T06:22:42.948Z,13.20
2018-06-23T06:25:12.654Z,12.70
2018-06-23T06:27:41.853Z,12.90
2018-06-23T06:30:11.820Z,13.00
2018-06-23T06:32:40.940Z,13.40
2018-06-23T06:35:10.089Z,13.80
2018-06-23T06:37:39.237Z,14.00
2018-06-23T06:40:09.118Z,14.20
2018-06-23T06:42:38.269Z,14.20
2018-06-23T06:45:08.109Z,14.30
2018-06-23T06:47:37.774Z,14.50
2018-06-23T06:50:07.140Z,14.50
2018-06-23T06:52:37.054Z,14.30
2018-06-23T06:55:06.193Z,13.60
2018-06-23T06:57:35.299Z,13.90
2018-06-23T07:00:05.060Z,14.10
2018-06-23T07:02:35.041Z,14.60
2018-06-23T07:05:04.193Z,14.80
2018-06-23T07:07:33.335Z,14.80
2018-06-23T07:10:02.478Z,14.70
2018-06-23T07:12:32.412Z,14.70
2018-06-23T07:15:01.528Z,15.00
2018-06-23T07:17:31.625Z,15.10
2018-06-23T07:20:01.749Z,15.50
2018-06-23T07:22:31.652Z,15.70
2018-06-23T07:25:01.501Z,15.80
2018-06-23T07:27:30.580Z,16.00
2018-06-23T07:29:59.705Z,16.40
2018-06-23T07:32:29.120Z,16.90
2018-06-23T07:34:58.385Z,16.00
2018-06-23T07:37:27.414Z,16.10
2018-06-23T07:39:56.757Z,16.00
2018-06-23T07:42:25.957Z,16.00
2018-06-23T07:44:55.102Z,15.80
2018-06-23T07:47:24.751Z,15.60
2018-06-23T07:49:54.110Z,15.20
2018-06-23T07:52:23.186Z,15.10
2018-06-23T07:54:52.369Z,14.80
2018-06-23T07:57:21.464Z,15.20
2018-06-23T07:59:50.589Z,16.40
2018-06-23T08:02:19.856Z,16.10
2018-06-23T08:04:49.036Z,16.70
2018-06-23T08:07:18.204Z,16.50
2018-06-23T08:09:48.733Z,15.60
2018-06-23T08:12:18.537Z,16.20
2018-06-23T08:14:47.944Z,16.60
2018-06-23T08:17:17.385Z,16.60
2018-06-23T08:19:47.067Z,17.80
2018-06-23T08:22:16.257Z,20.60
2018-06-23T08:24:45.398Z,21.80
2018-06-23T08:27:14.536Z,22.40
2018-06-23T08:29:43.721Z,23.80
2018-06-23T08:32:12.985Z,26.40
2018-06-23T08:34:42.116Z,26.90
2018-06-23T08:37:11.285Z,26.60
2018-06-23T08:39:40.392Z,26.50
2018-06-23T08:42:09.825Z,25.60
2018-06-23T08:44:39.277Z,25.90
2018-06-23T08:47:08.397Z,25.80
2018-06-23T08:49:37.524Z,25.70
2018-06-23T08:52:07.409Z,21.80
2018-06-23T08:54:36.485Z,20.00
2018-06-23T08:57:05.776Z,19.00
2018-06-23T08:59:34.888Z,19.30
2018-06-23T09:02:04.039Z,22.00
2018-06-23T09:04:33.944Z,25.00
2018-06-23T09:07:03.849Z,25.60
2018-06-23T09:09:33.082Z,25.80
2018-06-23T09:12:02.156Z,26.50
2018-06-23T09:14:31.356Z,23.70
2018-06-23T09:17:00.493Z,20.50
2018-06-23T09:19:29.648Z,21.20
2018-06-23T09:21:58.801Z,22.80
2018-06-23T09:24:28.014Z,23.50
2018-06-23T09:26:57.085Z,24.60
2018-06-23T09:29:26.536Z,25.00
2018-06-23T09:31:56.504Z,25.70
2018-06-23T09:34:26.458Z,25.60
2018-06-23T09:36:56.334Z,26.50
2018-06-23T09:39:25.573Z,27.80
2018-06-23T09:41:54.677Z,27.80
2018-06-23T09:44:23.841Z,25.00
2018-06-23T09:46:52.945Z,25.90
2018-06-23T09:49:22.184Z,27.20
2018-06-23T09:51:51.619Z,29.00
2018-06-23T09:54:20.745Z,29.80
2018-06-23T09:56:49.837Z,26.70
2018-06-23T09:59:19.212Z,25.70
2018-06-23T10:01:48.441Z,25.30
2018-06-23T10:04:17.616Z,26.40
2018-06-23T10:06:46.998Z,27.70
2018-06-23T10:09:16.146Z,28.30
2018-06-23T10:11:45.266Z,29.10
2018-06-23T10:14:14.452Z,28.50
2018-06-23T10:16:43.533Z,27.80
2018-06-23T10:19:12.711Z,27.80
2018-06-23T10:21:42.105Z,28.30
2018-06-23T10:24:11.262Z,29.40
2018-06-23T10:26:40.464Z,30.10
2018-06-23T10:29:09.664Z,30.70
2018-06-23T10:31:39.432Z,32.10
2018-06-23T10:34:08.562Z,33.00
2018-06-23T10:36:37.708Z,34.00
2018-06-23T10:39:09.696Z,32.80
2018-06-23T10:41:39.581Z,27.80
2018-06-23T10:44:08.809Z,26.40
2018-06-23T10:46:38.826Z,26.40
2018-06-23T10:49:07.920Z,27.70
2018-06-23T10:51:37.301Z,29.00
2018-06-23T10:54:06.618Z,29.20
2018-06-23T10:56:35.745Z,29.40
2018-06-23T10:59:05.217Z,30.00
2018-06-23T11:01:34.416Z,29.10
2018-06-23T11:04:03.524Z,28.40
2018-06-23T11:06:32.664Z,28.70
2018-06-23T11:09:02.005Z,29.40
2018-06-23T11:11:31.259Z,29.60
2018-06-23T11:14:00.385Z,29.10
2018-06-23T11:16:29.612Z,29.70
2018-06-23T11:18:58.713Z,29.90
2018-06-23T11:21:27.877Z,28.80
2018-06-23T11:23:57.345Z,28.50
2018-06-23T11:26:26.486Z,29.10
2018-06-23T11:28:55.576Z,29.90
2018-06-23T11:31:24.721Z,30.30
2018-06-23T11:33:53.898Z,30.50
2018-06-23T11:36:23.200Z,30.10
2018-06-23T11:38:52.641Z,28.70
2018-06-23T11:41:21.901Z,28.50
2018-06-23T11:43:51.010Z,30.00
2018-06-23T11:46:20.985Z,30.00
2018-06-23T11:48:50.112Z,28.00
2018-06-23T11:51:20.046Z,27.40
2018-06-23T11:53:49.148Z,28.10
2018-06-23T11:56:18.296Z,28.50
2018-06-23T11:58:47.488Z,27.60
2018-06-23T12:01:16.719Z,27.30
2018-06-23T12:03:45.944Z,26.70
2018-06-23T12:06:15.059Z,27.80
2018-06-23T12:08:44.692Z,28.70
2018-06-23T12:11:14.713Z,28.20
2018-06-23T12:13:43.833Z,27.20
2018-06-23T12:16:13.012Z,27.70
2018-06-23T12:18:42.424Z,28.20
2018-06-23T12:21:11.690Z,27.70
2018-06-23T12:23:41.077Z,27.90
2018-06-23T12:26:10.205Z,28.50
2018-06-23T12:28:39.362Z,28.50
2018-06-23T12:31:09.356Z,29.50
2018-06-23T12:33:38.538Z,29.60
2018-06-23T12:36:07.672Z,30.40
2018-06-23T12:38:36.789Z,28.90
2018-06-23T12:41:05.953Z,29.10
2018-06-23T12:43:36.089Z,30.00
2018-06-23T12:46:05.400Z,30.50
2018-06-23T12:48:34.573Z,30.20
2018-06-23T12:51:04.645Z,30.70
2018-06-23T12:53:33.806Z,30.70
2018-06-23T12:56:03.003Z,31.40
2018-06-23T12:58:32.361Z,31.60
2018-06-23T13:01:02.221Z,32.10
2018-06-23T13:03:31.360Z,31.40
2018-06-23T13:06:01.274Z,30.90
2018-06-23T13:08:30.432Z,31.30
2018-06-23T13:11:00.517Z,31.90
2018-06-23T13:13:29.581Z,31.00
2018-06-23T13:15:58.829Z,31.20
2018-06-23T13:18:28.031Z,31.70
2018-06-23T13:20:57.430Z,30.70
2018-06-23T13:23:26.610Z,29.00
2018-06-23T13:25:56.046Z,28.30
2018-06-23T13:28:25.159Z,28.90
2018-06-23T13:30:54.253Z,28.50
2018-06-23T13:33:23.654Z,28.90
2018-06-23T13:35:52.849Z,29.20
2018-06-23T13:38:22.000Z,29.20
2018-06-23T13:40:51.364Z,29.50
2018-06-23T13:43:20.501Z,29.50
2018-06-23T13:45:49.596Z,28.80
2018-06-23T13:48:19.159Z,28.80
2018-06-23T13:50:48.300Z,28.50
2018-06-23T13:53:18.145Z,29.10
2018-06-23T13:55:47.300Z,29.80
2018-06-23T13:58:16.440Z,30.40
2018-06-23T14:00:45.605Z,31.50
2018-06-23T14:03:14.790Z,31.20
2018-06-23T14:05:43.926Z,31.00
2018-06-23T14:08:13.888Z,30.80
2018-06-23T14:10:43.915Z,29.70
2018-06-23T14:13:13.996Z,29.90
2018-06-23T14:15:45.090Z,29.50
2018-06-23T14:18:15.109Z,29.40
2018-06-23T14:20:44.951Z,28.30
2018-06-23T14:23:14.060Z,28.20
2018-06-23T14:25:44.221Z,28.40
2018-06-23T14:28:13.349Z,29.20
2018-06-23T14:30:42.572Z,28.30
2018-06-23T14:33:11.712Z,28.20
2018-06-23T14:35:40.861Z,29.00
2018-06-23T14:38:10.035Z,29.10
2018-06-23T14:40:39.649Z,30.00
2018-06-23T14:43:08.829Z,30.20
2018-06-23T14:45:38.039Z,29.90
2018-06-23T14:48:07.856Z,30.50
2018-06-23T14:50:36.949Z,29.10
2018-06-23T14:53:06.121Z,30.10
2018-06-23T14:55:35.468Z,30.90
2018-06-23T14:58:04.649Z,31.70
2018-06-23T15:00:33.923Z,31.60
2018-06-23T15:03:03.197Z,31.60
2018-06-23T15:05:32.369Z,30.30
2018-06-23T15:08:18.556Z,30.80
2018-06-23T15:11:06.363Z,29.90
2018-06-23T15:13:36.229Z,29.10
2018-06-23T15:16:05.464Z,29.40
2018-06-23T15:18:34.616Z,28.00
2018-06-23T15:21:04.888Z,27.10
2018-06-23T15:23:34.847Z,27.20
2018-06-23T15:26:04.969Z,27.40
2018-06-23T15:28:34.735Z,26.90
2018-06-23T15:31:04.389Z,26.80
2018-06-23T15:33:33.470Z,26.40
2018-06-23T15:36:02.605Z,25.30
2018-06-23T15:38:32.474Z,24.90
2018-06-23T15:41:01.653Z,24.60
2018-06-23T15:43:30.845Z,25.00
2018-06-23T15:46:00.197Z,25.50
2018-06-23T15:48:29.366Z,25.40
2018-06-23T15:50:58.548Z,25.40
2018-06-23T15:53:28.188Z,25.00
2018-06-23T15:55:57.534Z,24.60
2018-06-23T15:58:26.653Z,23.80
2018-06-23T16:00:56.061Z,23.00
2018-06-23T16:03:25.285Z,23.20
2018-06-23T16:05:54.470Z,23.30
2018-06-23T16:08:23.851Z,23.10
2018-06-23T16:10:52.957Z,22.60
2018-06-23T16:13:22.049Z,22.40
2018-06-23T16:15:51.457Z,22.60
2018-06-23T16:18:20.650Z,22.20
2018-06-23T16:20:49.766Z,22.10
2018-06-23T16:23:18.938Z,22.10
2018-06-23T16:25:48.060Z,22.20
2018-06-23T16:28:17.381Z,22.60
2018-06-23T16:30:46.788Z,22.30
2018-06-23T16:33:15.860Z,21.60
2018-06-23T16:35:45.002Z,21.60
2018-06-23T16:38:14.285Z,21.70
2018-06-23T16:40:43.709Z,21.60
2018-06-23T16:43:12.792Z,21.30
2018-06-23T16:45:42.234Z,21.40
2018-06-23T16:48:11.369Z,21.40
2018-06-23T16:50:40.489Z,21.10
2018-06-23T16:53:10.033Z,21.10
2018-06-23T16:55:39.181Z,20.90
2018-06-23T16:58:08.988Z,21.40
2018-06-23T17:00:38.165Z,21.40
2018-06-23T17:03:07.256Z,21.50
2018-06-23T17:05:36.665Z,21.10
2018-06-23T17:08:05.784Z,21.00
2018-06-23T17:10:35.072Z,20.90
2018-06-23T17:13:04.444Z,20.70
2018-06-23T17:15:33.587Z,20.50
2018-06-23T17:18:03.625Z,20.50
2018-06-23T17:20:33.983Z,20.30
2018-06-23T17:23:03.141Z,20.40
2018-06-23T17:25:32.293Z,20.30
2018-06-23T17:28:01.485Z,19.80
2018-06-23T17:30:30.692Z,19.60
2018-06-23T17:32:59.920Z,20.00
2018-06-23T17:35:29.111Z,20.00
2018-06-23T17:37:58.272Z,19.60
2018-06-23T17:40:27.460Z,19.20
2018-06-23T17:42:57.085Z,19.30
2018-06-23T17:45:26.442Z,19.60
2018-06-23T17:47:55.594Z,19.50
2018-06-23T17:50:24.998Z,19.70
2018-06-23T17:52:54.132Z,19.80
2018-06-23T17:55:23.289Z,19.90
2018-06-23T17:57:52.862Z,20.00
2018-06-23T18:00:21.969Z,19.90
2018-06-23T18:02:51.104Z,20.00
2018-06-23T18:05:20.304Z,19.50
2018-06-23T18:07:49.384Z,19.50
2018-06-23T18:10:18.780Z,19.40
2018-06-23T18:12:48.208Z,19.20
2018-06-23T18:15:17.321Z,19.10
2018-06-23T18:17:46.461Z,19.10
2018-06-23T18:20:15.872Z,19.00
2018-06-23T18:22:45.277Z,18.90
2018-06-23T18:25:15.296Z,18.70
2018-06-23T18:27:44.483Z,18.80
2018-06-23T18:30:13.629Z,18.70
2018-06-23T18:32:42.776Z,18.80
2018-06-23T18:35:11.937Z,18.90
2018-06-23T18:37:41.197Z,19.00
2018-06-23T18:40:10.373Z,18.90
2018-06-23T18:42:39.893Z,18.70
2018-06-23T18:45:08.998Z,18.20
2018-06-23T18:47:38.580Z,18.20
2018-06-23T18:50:07.801Z,18.00
2018-06-23T18:52:36.912Z,18.00
2018-06-23T18:55:06.362Z,18.00
2018-06-23T18:57:35.497Z,18.00
2018-06-23T19:00:05.721Z,17.80
2018-06-23T19:02:34.936Z,17.80
2018-06-23T19:05:04.017Z,17.80
2018-06-23T19:07:33.242Z,17.80
2018-06-23T19:10:02.721Z,17.90
2018-06-23T19:12:31.817Z,17.70
2018-06-23T19:15:01.101Z,17.80
2018-06-23T19:17:30.501Z,17.80
2018-06-23T19:19:59.620Z,17.80
2018-06-23T19:22:28.760Z,17.80
2018-06-23T19:24:58.142Z,17.80
2018-06-23T19:28:56.934Z,17.70
2018-06-23T19:31:26.250Z,17.70
2018-06-23T19:33:55.431Z,17.70
2018-06-23T19:36:24.534Z,17.50
2018-06-23T19:38:54.000Z,17.50
2018-06-23T19:41:25.808Z,17.40
2018-06-23T19:45:24.678Z,17.40
2018-06-23T19:47:53.768Z,17.30
2018-06-23T19:50:23.001Z,16.90
2018-06-23T19:52:52.649Z,16.80
2018-06-23T19:55:21.858Z,16.70
2018-06-23T19:57:51.049Z,16.70
2018-06-23T20:00:20.197Z,16.60
2018-06-23T20:02:49.572Z,16.70
2018-06-23T20:05:18.700Z,16.70
2018-06-23T20:07:48.016Z,16.80
2018-06-23T20:10:17.210Z,16.50
2018-06-23T20:12:46.397Z,16.40
2018-06-23T20:15:15.945Z,16.40
2018-06-23T20:17:45.057Z,16.50
2018-06-23T20:20:14.185Z,16.30
2018-06-23T20:22:43.354Z,16.30
2018-06-23T20:25:12.548Z,16.30
2018-06-23T20:27:41.841Z,16.20
2018-06-23T20:30:11.245Z,16.10
2018-06-23T20:32:40.366Z,16.00
2018-06-23T20:35:09.537Z,16.00
2018-06-23T20:37:38.689Z,15.90
2018-06-23T20:40:07.853Z,15.70
2018-06-23T20:42:37.092Z,15.70
2018-06-23T20:45:07.254Z,15.60
2018-06-23T20:47:36.840Z,15.50
2018-06-23T20:50:05.984Z,15.50
2018-06-23T20:52:35.218Z,15.40
2018-06-23T20:55:04.421Z,15.30
2018-06-23T20:57:33.561Z,15.20
2018-06-23T21:00:03.624Z,15.10
2018-06-23T21:02:32.780Z,15.00
2018-06-23T21:05:01.888Z,14.90
2018-06-23T21:07:31.101Z,14.60
2018-06-23T21:10:00.216Z,14.50
2018-06-23T21:12:29.405Z,14.50
2018-06-23T21:14:59.000Z,14.50
2018-06-23T21:17:28.365Z,14.40
2018-06-23T21:19:57.471Z,14.40
2018-06-23T21:22:26.858Z,14.40
2018-06-23T21:24:56.269Z,14.20
2018-06-23T21:27:25.433Z,14.10
2018-06-23T21:29:54.612Z,14.10
2018-06-23T21:32:23.770Z,14.10
2018-06-23T21:34:52.957Z,14.00
2018-06-23T21:37:22.169Z,13.90
2018-06-23T21:39:51.360Z,13.90
2018-06-23T21:42:20.502Z,13.80
2018-06-23T21:44:49.780Z,13.70
2018-06-23T21:47:20.129Z,13.70
2018-06-23T21:49:49.272Z,13.80
2018-06-23T21:52:19.328Z,13.70
2018-06-23T21:54:48.541Z,13.70
2018-06-23T21:57:17.717Z,13.70
2018-06-23T21:59:46.829Z,13.60
2018-06-23T22:02:16.009Z,13.50
2018-06-23T22:04:45.248Z,13.40
2018-06-23T22:07:14.445Z,13.40
2018-06-23T22:09:43.533Z,13.40
2018-06-23T22:12:12.601Z,13.30
2018-06-23T22:14:42.076Z,13.20
2018-06-23T22:17:11.505Z,13.20
2018-06-23T22:19:40.629Z,13.20
2018-06-23T22:22:10.029Z,13.20
2018-06-23T22:24:39.351Z,13.30
2018-06-23T22:27:08.545Z,13.30
2018-06-23T22:29:37.840Z,13.30
2018-06-23T22:32:07.041Z,13.30
2018-06-23T22:34:36.174Z,13.10
2018-06-23T22:37:05.865Z,13.20
2018-06-23T22:39:34.995Z,13.20
2018-06-23T22:42:04.408Z,13.20
2018-06-23T22:44:33.504Z,13.20
2018-06-23T22:47:02.705Z,13.20
2018-06-23T22:49:31.869Z,13.10
2018-06-23T22:52:01.038Z,13.10
2018-06-23T22:54:30.346Z,13.10
2018-06-23T22:56:59.472Z,13.20
2018-06-23T22:59:28.912Z,13.20
2018-06-23T23:01:58.098Z,13.10
2018-06-23T23:04:27.212Z,13.10
2018-06-23T23:06:56.617Z,13.10
2018-06-23T23:09:25.821Z,13.00
2018-06-23T23:11:54.988Z,13.00
2018-06-23T23:14:24.136Z,13.00
2018-06-23T23:16:53.492Z,12.90
2018-06-23T23:19:22.717Z,12.80
2018-06-23T23:21:52.732Z,12.70
2018-06-23T23:24:21.820Z,12.60
2018-06-23T23:26:50.952Z,12.50
2018-06-23T23:29:20.333Z,12.50
2018-06-23T23:31:49.433Z,12.40
2018-06-23T23:34:18.705Z,12.40
2018-06-23T23:36:48.129Z,12.30
2018-06-23T23:39:17.243Z,12.30
2018-06-23T23:41:46.373Z,12.30
2018-06-23T23:44:15.593Z,12.30
2018-06-23T23:46:44.785Z,12.20
2018-06-23T23:49:13.896Z,12.20
2018-06-23T23:51:43.012Z,12.20
2018-06-23T23:54:12.156Z,12.20
2018-06-23T23:56:42.053Z,12.20
2018-06-23T23:59:11.209Z,12.10
